PRCHT SBLO-SBJD
Flight info
| Callsign | PRCHT |
|---|---|
| Flight time | 1h 14m |
| Altitude | 19000 |
| Route | UMPIG DCT ASETA |
| Aircraft | C414/L-SBDFGRY/S |
Departure
| Time | 2026-05-09 00:40 |
|---|---|
| Airport | Governor José Richa Airport (SBLO) |
Arrival
| Time | 2026-05-09 01:54 |
|---|---|
| Airport | Comte. Rolim Adolfo Amaro–Jundiaí State Airport (SBJD) |
| Time | Latitude | Longitude | Altitude | Speed | Heading |
|---|---|---|---|---|---|
| 2026-05-09 00:29 | -23.32705 | -51.14100 | 1873 ft | 0 kts | 225° |
| 2026-05-09 00:30 | -23.32703 | -51.14098 | 1873 ft | 0 kts | 210° |
| 2026-05-09 00:31 | -23.32700 | -51.14097 | 1873 ft | 1 kts | 177° |
| 2026-05-09 00:31 | -23.32696 | -51.14098 | 1873 ft | 0 kts | 144° |
| 2026-05-09 00:33 | -23.32701 | -51.14090 | 1873 ft | 4 kts | 96° |
| 2026-05-09 00:33 | -23.32721 | -51.14047 | 1873 ft | 8 kts | 133° |
| 2026-05-09 00:33 | -23.32770 | -51.13991 | 1873 ft | 12 kts | 133° |
| 2026-05-09 00:33 | -23.32839 | -51.13939 | 1873 ft | 13 kts | 161° |
| 2026-05-09 00:34 | -23.32915 | -51.13920 | 1873 ft | 11 kts | 182° |
| 2026-05-09 00:34 | -23.32955 | -51.13930 | 1873 ft | 0 kts | 200° |
| 2026-05-09 00:37 | -23.32963 | -51.13933 | 1873 ft | 5 kts | 199° |
| 2026-05-09 00:38 | -23.33015 | -51.13953 | 1873 ft | 9 kts | 194° |
| 2026-05-09 00:38 | -23.33053 | -51.13922 | 1873 ft | 6 kts | 113° |
| 2026-05-09 00:38 | -23.33066 | -51.13887 | 1873 ft | 6 kts | 111° |
| 2026-05-09 00:38 | -23.33130 | -51.13695 | 1873 ft | 48 kts | 110° |
| 2026-05-09 00:39 | -23.33289 | -51.13220 | 1877 ft | 83 kts | 110° |
| 2026-05-09 00:39 | -23.33491 | -51.12585 | 1986 ft | 93 kts | 106° |
| 2026-05-09 00:39 | -23.33660 | -51.11898 | 2175 ft | 95 kts | 91° |
| 2026-05-09 00:39 | -23.33591 | -51.11171 | 2368 ft | 97 kts | 76° |
| 2026-05-09 00:40 | -23.33453 | -51.10433 | 2528 ft | 112 kts | 74° |
| 2026-05-09 00:40 | -23.33257 | -51.09548 | 2645 ft | 125 kts | 69° |
| 2026-05-09 00:40 | -23.33062 | -51.08603 | 2807 ft | 138 kts | 78° |
| 2026-05-09 00:41 | -23.33017 | -51.06493 | 3154 ft | 151 kts | 83° |
| 2026-05-09 00:41 | -23.33011 | -51.05725 | 3329 ft | 148 kts | 82° |
| 2026-05-09 00:41 | -23.33012 | -51.04241 | 3620 ft | 151 kts | 83° |
| 2026-05-09 00:41 | -23.32999 | -51.03100 | 3848 ft | 149 kts | 78° |
| 2026-05-09 00:42 | -23.32987 | -51.01960 | 3972 ft | 157 kts | 86° |
| 2026-05-09 00:42 | -23.33093 | -51.00932 | 4096 ft | 160 kts | 89° |
| 2026-05-09 00:43 | -23.33135 | -51.00574 | 4163 ft | 160 kts | 89° |
| 2026-05-09 00:43 | -23.33224 | -50.99891 | 4280 ft | 160 kts | 90° |
| 2026-05-09 00:43 | -23.33354 | -50.98961 | 4373 ft | 167 kts | 91° |
| 2026-05-09 00:43 | -23.33554 | -50.97688 | 4511 ft | 171 kts | 92° |
| 2026-05-09 00:44 | -23.33735 | -50.96436 | 4752 ft | 166 kts | 90° |
| 2026-05-09 00:44 | -23.33839 | -50.95665 | 4857 ft | 168 kts | 90° |
| 2026-05-09 00:45 | -23.33916 | -50.95105 | 4939 ft | 168 kts | 90° |
| 2026-05-09 00:46 | -23.33923 | -50.95053 | 4949 ft | 168 kts | 90° |
| 2026-05-09 00:47 | -23.34037 | -50.94187 | 5096 ft | 166 kts | 89° |
| 2026-05-09 00:47 | -23.34209 | -50.92934 | 5254 ft | 170 kts | 92° |
| 2026-05-09 00:47 | -23.34475 | -50.91658 | 5415 ft | 175 kts | 98° |
| 2026-05-09 00:48 | -23.34689 | -50.90816 | 5578 ft | 173 kts | 98° |
| 2026-05-09 00:48 | -23.35112 | -50.89146 | 5796 ft | 175 kts | 96° |
| 2026-05-09 00:48 | -23.35254 | -50.88460 | 5882 ft | 175 kts | 93° |
| 2026-05-09 00:49 | -23.35469 | -50.87249 | 6117 ft | 170 kts | 91° |
| 2026-05-09 00:50 | -23.35660 | -50.85971 | 6251 ft | 173 kts | 88° |
| 2026-05-09 00:50 | -23.35748 | -50.84681 | 6410 ft | 167 kts | 77° |
| 2026-05-09 00:50 | -23.35693 | -50.83884 | 6570 ft | 162 kts | 72° |
| 2026-05-09 00:50 | -23.35667 | -50.83650 | 6612 ft | 160 kts | 71° |
| 2026-05-09 00:51 | -23.35512 | -50.82446 | 6779 ft | 168 kts | 78° |
| 2026-05-09 00:51 | -23.35818 | -50.81118 | 6839 ft | 186 kts | 106° |
| 2026-05-09 00:51 | -23.36233 | -50.79804 | 7035 ft | 180 kts | 98° |
| 2026-05-09 00:51 | -23.36467 | -50.78528 | 7357 ft | 168 kts | 89° |
| 2026-05-09 00:52 | -23.36468 | -50.77288 | 7506 ft | 160 kts | 69° |
| 2026-05-09 00:52 | -23.36293 | -50.76114 | 7711 ft | 159 kts | 69° |
| 2026-05-09 00:52 | -23.36128 | -50.74949 | 7978 ft | 153 kts | 69° |
| 2026-05-09 00:52 | -23.35968 | -50.73799 | 8192 ft | 154 kts | 69° |
| 2026-05-09 00:53 | -23.35807 | -50.72648 | 8398 ft | 154 kts | 69° |
| 2026-05-09 00:53 | -23.35647 | -50.71498 | 8565 ft | 154 kts | 69° |
| 2026-05-09 00:53 | -23.35492 | -50.70344 | 8776 ft | 154 kts | 69° |
| 2026-05-09 00:53 | -23.35335 | -50.69190 | 9007 ft | 154 kts | 69° |
| 2026-05-09 00:54 | -23.35180 | -50.68036 | 9244 ft | 154 kts | 69° |
| 2026-05-09 00:54 | -23.35027 | -50.66886 | 9485 ft | 154 kts | 69° |
| 2026-05-09 00:54 | -23.34876 | -50.65735 | 9740 ft | 154 kts | 69° |
| 2026-05-09 00:54 | -23.34727 | -50.64580 | 9995 ft | 151 kts | 68° |
| 2026-05-09 00:55 | -23.34582 | -50.63460 | 10204 ft | 149 kts | 68° |
| 2026-05-09 00:55 | -23.34423 | -50.62340 | 10388 ft | 149 kts | 69° |
| 2026-05-09 00:55 | -23.34254 | -50.61224 | 10547 ft | 150 kts | 69° |
| 2026-05-09 00:55 | -23.34093 | -50.60096 | 10710 ft | 151 kts | 68° |
| 2026-05-09 00:56 | -23.33932 | -50.58966 | 10807 ft | 153 kts | 68° |
| 2026-05-09 00:56 | -23.33772 | -50.57822 | 10991 ft | 153 kts | 69° |
| 2026-05-09 00:56 | -23.33614 | -50.56676 | 11191 ft | 154 kts | 69° |
| 2026-05-09 00:56 | -23.33455 | -50.55536 | 11392 ft | 155 kts | 69° |
| 2026-05-09 00:57 | -23.33289 | -50.54370 | 11601 ft | 156 kts | 69° |
| 2026-05-09 00:57 | -23.33118 | -50.53201 | 11830 ft | 157 kts | 69° |
| 2026-05-09 00:57 | -23.32940 | -50.52023 | 12043 ft | 158 kts | 69° |
| 2026-05-09 00:57 | -23.32755 | -50.50838 | 12225 ft | 159 kts | 69° |
| 2026-05-09 00:58 | -23.32564 | -50.49649 | 12431 ft | 160 kts | 69° |
| 2026-05-09 00:58 | -23.32317 | -50.48482 | 12631 ft | 154 kts | 54° |
| 2026-05-09 00:58 | -23.31801 | -50.47499 | 12829 ft | 147 kts | 41° |
| 2026-05-09 00:58 | -23.31184 | -50.46617 | 13010 ft | 147 kts | 40° |
| 2026-05-09 00:59 | -23.30563 | -50.45732 | 13230 ft | 148 kts | 39° |
| 2026-05-09 00:59 | -23.29941 | -50.44836 | 13426 ft | 152 kts | 46° |
| 2026-05-09 00:59 | -23.29702 | -50.43648 | 13613 ft | 171 kts | 82° |
| 2026-05-09 00:59 | -23.29737 | -50.42338 | 13797 ft | 174 kts | 82° |
| 2026-05-09 01:00 | -23.29751 | -50.41025 | 13980 ft | 174 kts | 82° |
| 2026-05-09 01:00 | -23.29755 | -50.39710 | 14161 ft | 174 kts | 82° |
| 2026-05-09 01:00 | -23.29759 | -50.38388 | 14331 ft | 176 kts | 82° |
| 2026-05-09 01:00 | -23.29761 | -50.37053 | 14499 ft | 177 kts | 82° |
| 2026-05-09 01:01 | -23.29764 | -50.35711 | 14668 ft | 178 kts | 82° |
| 2026-05-09 01:01 | -23.29767 | -50.34364 | 14849 ft | 179 kts | 82° |
| 2026-05-09 01:01 | -23.29769 | -50.33010 | 15024 ft | 180 kts | 82° |
| 2026-05-09 01:01 | -23.29771 | -50.31666 | 15199 ft | 181 kts | 82° |
| 2026-05-09 01:02 | -23.29773 | -50.30295 | 15361 ft | 181 kts | 82° |
| 2026-05-09 01:02 | -23.29775 | -50.28918 | 15536 ft | 182 kts | 82° |
| 2026-05-09 01:02 | -23.29776 | -50.27538 | 15692 ft | 183 kts | 82° |
| 2026-05-09 01:02 | -23.29779 | -50.26145 | 15854 ft | 184 kts | 83° |
| 2026-05-09 01:03 | -23.29781 | -50.24753 | 16008 ft | 185 kts | 83° |
| 2026-05-09 01:03 | -23.29782 | -50.23353 | 16190 ft | 185 kts | 83° |
| 2026-05-09 01:03 | -23.29783 | -50.21947 | 16369 ft | 186 kts | 83° |
| 2026-05-09 01:03 | -23.29785 | -50.20534 | 16541 ft | 187 kts | 83° |
| 2026-05-09 01:04 | -23.29786 | -50.19114 | 16715 ft | 188 kts | 83° |
| 2026-05-09 01:04 | -23.29788 | -50.17688 | 16905 ft | 189 kts | 83° |
| 2026-05-09 01:04 | -23.29788 | -50.16253 | 17089 ft | 190 kts | 83° |
| 2026-05-09 01:04 | -23.29789 | -50.14813 | 17250 ft | 191 kts | 83° |
| 2026-05-09 01:05 | -23.29789 | -50.13361 | 17418 ft | 192 kts | 84° |
| 2026-05-09 01:05 | -23.29790 | -50.11907 | 17584 ft | 192 kts | 84° |
| 2026-05-09 01:05 | -23.29791 | -50.08983 | 17901 ft | 194 kts | 84° |
| 2026-05-09 01:06 | -23.29792 | -50.07530 | 18075 ft | 195 kts | 84° |
| 2026-05-09 01:06 | -23.29791 | -50.06048 | 18234 ft | 196 kts | 84° |
| 2026-05-09 01:06 | -23.29792 | -50.04565 | 18403 ft | 196 kts | 84° |
| 2026-05-09 01:06 | -23.29793 | -50.03073 | 18547 ft | 197 kts | 84° |
| 2026-05-09 01:07 | -23.29791 | -50.01579 | 18704 ft | 197 kts | 84° |
| 2026-05-09 01:07 | -23.29790 | -50.00087 | 18844 ft | 197 kts | 84° |
| 2026-05-09 01:07 | -23.29789 | -49.98589 | 18939 ft | 201 kts | 84° |
| 2026-05-09 01:07 | -23.29787 | -49.97026 | 18953 ft | 212 kts | 84° |
| 2026-05-09 01:08 | -23.29795 | -49.95410 | 18957 ft | 216 kts | 85° |
| 2026-05-09 01:08 | -23.29788 | -49.93765 | 18952 ft | 221 kts | 83° |
| 2026-05-09 01:08 | -23.29776 | -49.92074 | 18955 ft | 228 kts | 85° |
| 2026-05-09 01:08 | -23.29788 | -49.90317 | 18960 ft | 231 kts | 85° |
| 2026-05-09 01:09 | -23.29788 | -49.88583 | 18961 ft | 234 kts | 85° |
| 2026-05-09 01:09 | -23.29784 | -49.86797 | 18957 ft | 237 kts | 85° |
| 2026-05-09 01:09 | -23.29781 | -49.84993 | 18957 ft | 240 kts | 85° |
| 2026-05-09 01:09 | -23.29778 | -49.83174 | 18961 ft | 241 kts | 85° |
| 2026-05-09 01:10 | -23.29775 | -49.81342 | 18964 ft | 243 kts | 85° |
| 2026-05-09 01:10 | -23.29773 | -49.79507 | 18962 ft | 243 kts | 85° |
| 2026-05-09 01:10 | -23.29769 | -49.77665 | 18961 ft | 244 kts | 85° |
| 2026-05-09 01:10 | -23.29758 | -49.75823 | 18965 ft | 244 kts | 85° |
| 2026-05-09 01:11 | -23.29749 | -49.73976 | 18964 ft | 244 kts | 85° |
| 2026-05-09 01:11 | -23.29745 | -49.72127 | 18959 ft | 245 kts | 85° |
| 2026-05-09 01:11 | -23.29730 | -49.70278 | 18960 ft | 244 kts | 84° |
| 2026-05-09 01:11 | -23.29722 | -49.68427 | 18960 ft | 245 kts | 85° |
| 2026-05-09 01:12 | -23.29724 | -49.66577 | 18961 ft | 244 kts | 85° |
| 2026-05-09 01:12 | -23.29721 | -49.64731 | 18958 ft | 244 kts | 85° |
| 2026-05-09 01:12 | -23.29716 | -49.62881 | 18957 ft | 244 kts | 85° |
| 2026-05-09 01:12 | -23.29710 | -49.61035 | 18960 ft | 244 kts | 85° |
| 2026-05-09 01:13 | -23.29705 | -49.59187 | 18960 ft | 244 kts | 85° |
| 2026-05-09 01:13 | -23.29700 | -49.57338 | 18959 ft | 244 kts | 85° |
| 2026-05-09 01:13 | -23.29694 | -49.55496 | 18960 ft | 244 kts | 85° |
| 2026-05-09 01:13 | -23.29689 | -49.53671 | 18960 ft | 244 kts | 85° |
| 2026-05-09 01:14 | -23.29683 | -49.51799 | 18958 ft | 244 kts | 85° |
| 2026-05-09 01:14 | -23.29677 | -49.49976 | 18960 ft | 244 kts | 85° |
| 2026-05-09 01:14 | -23.29670 | -49.48128 | 18962 ft | 244 kts | 85° |
| 2026-05-09 01:14 | -23.29663 | -49.46277 | 18963 ft | 244 kts | 85° |
| 2026-05-09 01:15 | -23.29657 | -49.44432 | 18959 ft | 243 kts | 85° |
| 2026-05-09 01:15 | -23.29649 | -49.42596 | 18961 ft | 243 kts | 85° |
| 2026-05-09 01:15 | -23.29642 | -49.40758 | 18962 ft | 243 kts | 85° |
| 2026-05-09 01:15 | -23.29634 | -49.38919 | 18962 ft | 243 kts | 85° |
| 2026-05-09 01:16 | -23.29627 | -49.37076 | 18959 ft | 243 kts | 85° |
| 2026-05-09 01:16 | -23.29620 | -49.35239 | 18959 ft | 243 kts | 84° |
| 2026-05-09 01:16 | -23.29611 | -49.33405 | 18958 ft | 243 kts | 84° |
| 2026-05-09 01:17 | -23.29594 | -49.29740 | 18958 ft | 242 kts | 84° |
| 2026-05-09 01:17 | -23.29585 | -49.27906 | 18957 ft | 242 kts | 84° |
| 2026-05-09 01:17 | -23.29577 | -49.26098 | 18956 ft | 242 kts | 84° |
| 2026-05-09 01:17 | -23.29567 | -49.24265 | 18956 ft | 242 kts | 84° |
| 2026-05-09 01:18 | -23.29558 | -49.22436 | 18955 ft | 242 kts | 84° |
| 2026-05-09 01:18 | -23.29548 | -49.20608 | 18952 ft | 241 kts | 84° |
| 2026-05-09 01:18 | -23.29538 | -49.18783 | 18954 ft | 241 kts | 84° |
| 2026-05-09 01:18 | -23.29529 | -49.16960 | 18955 ft | 241 kts | 84° |
| 2026-05-09 01:19 | -23.29519 | -49.15135 | 18956 ft | 241 kts | 84° |
| 2026-05-09 01:19 | -23.29507 | -49.13306 | 18957 ft | 241 kts | 84° |
| 2026-05-09 01:19 | -23.29496 | -49.11477 | 18959 ft | 242 kts | 84° |
| 2026-05-09 01:19 | -23.29487 | -49.09646 | 18958 ft | 242 kts | 84° |
| 2026-05-09 01:20 | -23.29476 | -49.07813 | 18955 ft | 242 kts | 84° |
| 2026-05-09 01:20 | -23.29464 | -49.05983 | 18957 ft | 242 kts | 84° |
| 2026-05-09 01:20 | -23.29452 | -49.04148 | 18958 ft | 243 kts | 84° |
| 2026-05-09 01:20 | -23.29441 | -49.02311 | 18954 ft | 243 kts | 84° |
| 2026-05-09 01:21 | -23.29429 | -49.00501 | 18956 ft | 242 kts | 84° |
| 2026-05-09 01:21 | -23.29417 | -48.98667 | 18952 ft | 242 kts | 84° |
| 2026-05-09 01:21 | -23.29405 | -48.96836 | 18952 ft | 242 kts | 84° |
| 2026-05-09 01:21 | -23.29392 | -48.95012 | 18955 ft | 241 kts | 84° |
| 2026-05-09 01:22 | -23.29379 | -48.93190 | 18956 ft | 241 kts | 84° |
| 2026-05-09 01:22 | -23.29366 | -48.91366 | 18957 ft | 241 kts | 84° |
| 2026-05-09 01:22 | -23.29353 | -48.89545 | 18956 ft | 241 kts | 84° |
| 2026-05-09 01:22 | -23.29340 | -48.87724 | 18957 ft | 241 kts | 84° |
| 2026-05-09 01:23 | -23.29326 | -48.85899 | 18957 ft | 241 kts | 84° |
| 2026-05-09 01:23 | -23.29313 | -48.84070 | 18958 ft | 242 kts | 84° |
| 2026-05-09 01:23 | -23.29299 | -48.82238 | 18958 ft | 242 kts | 84° |
| 2026-05-09 01:23 | -23.29284 | -48.80404 | 18956 ft | 242 kts | 83° |
| 2026-05-09 01:24 | -23.29270 | -48.78574 | 18953 ft | 242 kts | 84° |
| 2026-05-09 01:24 | -23.29256 | -48.76746 | 18954 ft | 241 kts | 83° |
| 2026-05-09 01:24 | -23.29241 | -48.74922 | 18955 ft | 241 kts | 83° |
| 2026-05-09 01:24 | -23.29225 | -48.73093 | 18954 ft | 242 kts | 84° |
| 2026-05-09 01:25 | -23.29211 | -48.71287 | 18954 ft | 241 kts | 83° |
| 2026-05-09 01:25 | -23.29194 | -48.69461 | 18958 ft | 241 kts | 83° |
| 2026-05-09 01:25 | -23.29179 | -48.67638 | 18957 ft | 241 kts | 84° |
| 2026-05-09 01:25 | -23.29163 | -48.65813 | 18956 ft | 242 kts | 83° |
| 2026-05-09 01:26 | -23.29147 | -48.63985 | 18958 ft | 242 kts | 83° |
| 2026-05-09 01:26 | -23.29131 | -48.62157 | 18956 ft | 241 kts | 83° |
| 2026-05-09 01:26 | -23.29114 | -48.60331 | 18956 ft | 241 kts | 83° |
| 2026-05-09 01:26 | -23.29097 | -48.58505 | 18955 ft | 242 kts | 83° |
| 2026-05-09 01:27 | -23.29080 | -48.56677 | 18955 ft | 242 kts | 83° |
| 2026-05-09 01:27 | -23.29063 | -48.54846 | 18956 ft | 242 kts | 83° |
| 2026-05-09 01:27 | -23.29046 | -48.53012 | 18950 ft | 242 kts | 84° |
| 2026-05-09 01:27 | -23.29029 | -48.51183 | 18953 ft | 242 kts | 83° |
| 2026-05-09 01:28 | -23.29010 | -48.49356 | 18957 ft | 242 kts | 83° |
| 2026-05-09 01:28 | -23.28993 | -48.47530 | 18954 ft | 242 kts | 84° |
| 2026-05-09 01:28 | -23.28974 | -48.45702 | 18950 ft | 242 kts | 83° |
| 2026-05-09 01:28 | -23.28955 | -48.43875 | 18950 ft | 242 kts | 84° |
| 2026-05-09 01:29 | -23.28937 | -48.42051 | 18952 ft | 241 kts | 84° |
| 2026-05-09 01:29 | -23.28918 | -48.40229 | 18951 ft | 241 kts | 84° |
| 2026-05-09 01:29 | -23.28898 | -48.38406 | 18949 ft | 241 kts | 84° |
| 2026-05-09 01:29 | -23.28880 | -48.36608 | 18940 ft | 242 kts | 83° |
| 2026-05-09 01:30 | -23.28858 | -48.34747 | 18779 ft | 249 kts | 84° |
| 2026-05-09 01:30 | -23.28838 | -48.32852 | 18633 ft | 252 kts | 84° |
| 2026-05-09 01:30 | -23.28819 | -48.30934 | 18479 ft | 254 kts | 84° |
| 2026-05-09 01:30 | -23.28800 | -48.29003 | 18329 ft | 256 kts | 84° |
| 2026-05-09 01:31 | -23.28770 | -48.27064 | 18158 ft | 257 kts | 83° |
| 2026-05-09 01:31 | -23.28736 | -48.25124 | 17958 ft | 256 kts | 84° |
| 2026-05-09 01:31 | -23.28710 | -48.23188 | 17755 ft | 255 kts | 84° |
| 2026-05-09 01:31 | -23.28686 | -48.21258 | 17545 ft | 254 kts | 84° |
| 2026-05-09 01:32 | -23.28657 | -48.19339 | 17345 ft | 254 kts | 84° |
| 2026-05-09 01:32 | -23.28630 | -48.17420 | 17143 ft | 253 kts | 84° |
| 2026-05-09 01:32 | -23.28602 | -48.15502 | 16943 ft | 253 kts | 84° |
| 2026-05-09 01:32 | -23.28575 | -48.13589 | 16742 ft | 253 kts | 84° |
| 2026-05-09 01:33 | -23.28548 | -48.11683 | 16543 ft | 252 kts | 84° |
| 2026-05-09 01:33 | -23.28519 | -48.09785 | 16343 ft | 250 kts | 84° |
| 2026-05-09 01:33 | -23.28492 | -48.07896 | 16149 ft | 249 kts | 84° |
| 2026-05-09 01:33 | -23.28464 | -48.06019 | 15954 ft | 248 kts | 84° |
| 2026-05-09 01:34 | -23.28436 | -48.04147 | 15758 ft | 247 kts | 84° |
| 2026-05-09 01:34 | -23.28407 | -48.02284 | 15564 ft | 246 kts | 84° |
| 2026-05-09 01:34 | -23.28379 | -48.00434 | 15377 ft | 244 kts | 84° |
| 2026-05-09 01:34 | -23.28349 | -47.98587 | 15189 ft | 244 kts | 84° |
| 2026-05-09 01:35 | -23.28321 | -47.96742 | 15002 ft | 244 kts | 84° |
| 2026-05-09 01:35 | -23.28294 | -47.94904 | 14814 ft | 243 kts | 84° |
| 2026-05-09 01:35 | -23.28264 | -47.93066 | 14626 ft | 243 kts | 84° |
| 2026-05-09 01:35 | -23.28236 | -47.91233 | 14439 ft | 242 kts | 84° |
| 2026-05-09 01:36 | -23.28206 | -47.89407 | 14253 ft | 241 kts | 84° |
| 2026-05-09 01:36 | -23.28177 | -47.87610 | 14074 ft | 240 kts | 84° |
| 2026-05-09 01:36 | -23.28148 | -47.85795 | 13893 ft | 240 kts | 85° |
| 2026-05-09 01:36 | -23.28119 | -47.83992 | 13706 ft | 237 kts | 84° |
| 2026-05-09 01:37 | -23.28089 | -47.82209 | 13500 ft | 235 kts | 85° |
| 2026-05-09 01:37 | -23.28059 | -47.80434 | 13296 ft | 234 kts | 84° |
| 2026-05-09 01:37 | -23.28030 | -47.78649 | 13088 ft | 232 kts | 84° |
| 2026-05-09 01:37 | -23.28002 | -47.76919 | 12884 ft | 231 kts | 84° |
| 2026-05-09 01:38 | -23.27974 | -47.75179 | 12684 ft | 229 kts | 84° |
| 2026-05-09 01:38 | -23.27943 | -47.73451 | 12482 ft | 228 kts | 84° |
| 2026-05-09 01:38 | -23.27912 | -47.71728 | 12284 ft | 227 kts | 84° |
| 2026-05-09 01:38 | -23.27884 | -47.70020 | 12090 ft | 225 kts | 84° |
| 2026-05-09 01:39 | -23.27854 | -47.68318 | 11895 ft | 224 kts | 83° |
| 2026-05-09 01:39 | -23.27823 | -47.66622 | 11699 ft | 223 kts | 83° |
| 2026-05-09 01:39 | -23.27795 | -47.64937 | 11503 ft | 223 kts | 83° |
| 2026-05-09 01:39 | -23.27765 | -47.63255 | 11315 ft | 221 kts | 83° |
| 2026-05-09 01:40 | -23.27746 | -47.62149 | 11187 ft | 221 kts | 83° |
| 2026-05-09 01:40 | -23.27715 | -47.60480 | 10994 ft | 220 kts | 83° |
| 2026-05-09 01:40 | -23.27686 | -47.58825 | 10804 ft | 219 kts | 83° |
| 2026-05-09 01:40 | -23.27660 | -47.57178 | 10617 ft | 217 kts | 83° |
| 2026-05-09 01:41 | -23.27629 | -47.55537 | 10430 ft | 216 kts | 83° |
| 2026-05-09 01:41 | -23.27597 | -47.53904 | 10246 ft | 215 kts | 83° |
| 2026-05-09 01:41 | -23.27568 | -47.52278 | 10060 ft | 214 kts | 82° |
| 2026-05-09 01:41 | -23.27538 | -47.50663 | 9878 ft | 213 kts | 82° |
| 2026-05-09 01:42 | -23.27509 | -47.49054 | 9676 ft | 212 kts | 82° |
| 2026-05-09 01:42 | -23.27479 | -47.47449 | 9472 ft | 213 kts | 82° |
| 2026-05-09 01:42 | -23.27447 | -47.45832 | 9272 ft | 214 kts | 82° |
| 2026-05-09 01:42 | -23.27416 | -47.44209 | 9067 ft | 215 kts | 82° |
| 2026-05-09 01:43 | -23.27386 | -47.42585 | 8875 ft | 215 kts | 83° |
| 2026-05-09 01:43 | -23.27356 | -47.40963 | 8679 ft | 214 kts | 82° |
| 2026-05-09 01:43 | -23.27323 | -47.39340 | 8480 ft | 215 kts | 82° |
| 2026-05-09 01:43 | -23.27294 | -47.37735 | 8291 ft | 216 kts | 83° |
| 2026-05-09 01:44 | -23.27265 | -47.36204 | 8104 ft | 216 kts | 82° |
| 2026-05-09 01:44 | -23.27234 | -47.34575 | 7912 ft | 215 kts | 83° |
| 2026-05-09 01:44 | -23.27204 | -47.32959 | 7727 ft | 213 kts | 82° |
| 2026-05-09 01:44 | -23.27168 | -47.31350 | 7536 ft | 213 kts | 82° |
| 2026-05-09 01:45 | -23.27136 | -47.29738 | 7344 ft | 213 kts | 82° |
| 2026-05-09 01:45 | -23.27107 | -47.28127 | 7160 ft | 213 kts | 82° |
| 2026-05-09 01:45 | -23.27075 | -47.26520 | 6971 ft | 213 kts | 82° |
| 2026-05-09 01:45 | -23.27042 | -47.24916 | 6783 ft | 212 kts | 82° |
| 2026-05-09 01:46 | -23.27012 | -47.23321 | 6599 ft | 209 kts | 81° |
| 2026-05-09 01:46 | -23.26979 | -47.21752 | 6407 ft | 206 kts | 81° |
| 2026-05-09 01:46 | -23.26944 | -47.20189 | 6227 ft | 208 kts | 81° |
| 2026-05-09 01:46 | -23.26904 | -47.18606 | 6025 ft | 208 kts | 82° |
| 2026-05-09 01:47 | -23.26880 | -47.17030 | 5836 ft | 209 kts | 82° |
| 2026-05-09 01:47 | -23.26849 | -47.15439 | 5637 ft | 210 kts | 82° |
| 2026-05-09 01:47 | -23.26822 | -47.13848 | 5451 ft | 210 kts | 83° |
| 2026-05-09 01:47 | -23.26784 | -47.12264 | 5266 ft | 209 kts | 82° |
| 2026-05-09 01:48 | -23.26750 | -47.10683 | 5063 ft | 207 kts | 82° |
| 2026-05-09 01:48 | -23.26712 | -47.09144 | 4877 ft | 205 kts | 82° |
| 2026-05-09 01:48 | -23.26679 | -47.07595 | 4680 ft | 204 kts | 83° |
| 2026-05-09 01:48 | -23.26650 | -47.06063 | 4493 ft | 202 kts | 82° |
| 2026-05-09 01:49 | -23.26614 | -47.04541 | 4278 ft | 200 kts | 83° |
| 2026-05-09 01:49 | -23.26588 | -47.03045 | 4111 ft | 199 kts | 84° |
| 2026-05-09 01:49 | -23.26555 | -47.01544 | 3937 ft | 195 kts | 80° |
| 2026-05-09 01:49 | -23.26309 | -47.00131 | 3986 ft | 186 kts | 68° |
| 2026-05-09 01:50 | -23.25927 | -46.98847 | 4180 ft | 173 kts | 60° |
| 2026-05-09 01:50 | -23.25571 | -46.97590 | 4336 ft | 179 kts | 73° |
| 2026-05-09 01:50 | -23.25471 | -46.96225 | 4487 ft | 192 kts | 90° |
| 2026-05-09 01:50 | -23.25758 | -46.94733 | 4368 ft | 211 kts | 101° |
| 2026-05-09 01:51 | -23.26092 | -46.93187 | 4327 ft | 207 kts | 89° |
| 2026-05-09 01:51 | -23.25784 | -46.91770 | 4321 ft | 191 kts | 47° |
| 2026-05-09 01:51 | -23.24893 | -46.90746 | 4127 ft | 187 kts | 27° |
| 2026-05-09 01:51 | -23.23697 | -46.90401 | 3806 ft | 179 kts | 352° |
| 2026-05-09 01:52 | -23.22625 | -46.90884 | 3713 ft | 160 kts | 319° |
| 2026-05-09 01:52 | -23.21958 | -46.91832 | 3525 ft | 150 kts | 302° |
| 2026-05-09 01:52 | -23.21404 | -46.92724 | 3337 ft | 134 kts | 323° |
| 2026-05-09 01:52 | -23.20658 | -46.93225 | 3104 ft | 122 kts | 335° |
| 2026-05-09 01:53 | -23.19879 | -46.93555 | 2914 ft | 119 kts | 332° |
| 2026-05-09 01:53 | -23.19122 | -46.93912 | 2652 ft | 114 kts | 335° |
| 2026-05-09 01:53 | -23.18433 | -46.94233 | 2522 ft | 98 kts | 335° |
| 2026-05-09 01:53 | -23.17892 | -46.94479 | 2519 ft | 59 kts | 338° |
| 2026-05-09 01:54 | -23.17683 | -46.94578 | 2518 ft | 25 kts | 337° |
| 2026-05-09 01:54 | -23.17550 | -46.94640 | 2518 ft | 18 kts | 335° |
| 2026-05-09 01:54 | -23.17541 | -46.94717 | 2516 ft | 13 kts | 209° |
| 2026-05-09 01:54 | -23.17616 | -46.94715 | 2517 ft | 9 kts | 196° |
| 2026-05-09 01:55 | -23.17627 | -46.94726 | 2516 ft | 0 kts | 243° |